sensor_id;sensor_type;location;lat;lon;timestamp;P1;durP1;ratioP1;P2;durP2;ratioP2
3831;SDS011;12460;42.662;23.288;2023-05-19T00:08:46;6.60;;;4.97;;
3831;SDS011;12460;42.662;23.288;2023-05-19T00:23:52;5.53;;;5.03;;
3831;SDS011;12460;42.662;23.288;2023-05-19T00:38:57;6.17;;;5.60;;
3831;SDS011;12460;42.662;23.288;2023-05-19T00:54:02;7.13;;;5.40;;
3831;SDS011;12460;42.662;23.288;2023-05-19T01:09:07;5.97;;;5.47;;
3831;SDS011;12460;42.662;23.288;2023-05-19T01:39:24;5.93;;;5.33;;
3831;SDS011;12460;42.662;23.288;2023-05-19T01:54:29;6.37;;;5.50;;
3831;SDS011;12460;42.662;23.288;2023-05-19T02:25:00;8.90;;;6.30;;
3831;SDS011;12460;42.662;23.288;2023-05-19T02:40:07;7.30;;;6.50;;
3831;SDS011;12460;42.662;23.288;2023-05-19T02:55:12;8.03;;;7.00;;
3831;SDS011;12460;42.662;23.288;2023-05-19T03:10:19;8.70;;;7.10;;
3831;SDS011;12460;42.662;23.288;2023-05-19T03:25:23;9.27;;;7.53;;
3831;SDS011;12460;42.662;23.288;2023-05-19T03:40:28;10.97;;;8.80;;
3831;SDS011;12460;42.662;23.288;2023-05-19T03:55:39;9.63;;;8.63;;
3831;SDS011;12460;42.662;23.288;2023-05-19T04:10:44;11.47;;;9.97;;
3831;SDS011;12460;42.662;23.288;2023-05-19T04:25:48;10.17;;;8.60;;
3831;SDS011;12460;42.662;23.288;2023-05-19T04:40:52;10.27;;;8.80;;
3831;SDS011;12460;42.662;23.288;2023-05-19T04:55:57;10.27;;;9.27;;
3831;SDS011;12460;42.662;23.288;2023-05-19T05:11:06;9.50;;;8.40;;
3831;SDS011;12460;42.662;23.288;2023-05-19T05:26:15;10.53;;;8.80;;
3831;SDS011;12460;42.662;23.288;2023-05-19T05:41:23;12.40;;;9.20;;
3831;SDS011;12460;42.662;23.288;2023-05-19T05:56:28;9.17;;;8.27;;
3831;SDS011;12460;42.662;23.288;2023-05-19T06:11:34;9.43;;;8.47;;
3831;SDS011;12460;42.662;23.288;2023-05-19T06:26:39;10.47;;;7.67;;
3831;SDS011;12460;42.662;23.288;2023-05-19T06:41:44;6.97;;;6.37;;
3831;SDS011;12460;42.662;23.288;2023-05-19T06:57:10;9.50;;;8.70;;
3831;SDS011;12460;42.662;23.288;2023-05-19T07:12:15;9.90;;;6.97;;
3831;SDS011;12460;42.662;23.288;2023-05-19T07:27:21;8.60;;;7.90;;
3831;SDS011;12460;42.662;23.288;2023-05-19T07:42:25;9.80;;;8.90;;
3831;SDS011;12460;42.662;23.288;2023-05-19T07:57:31;9.07;;;8.27;;
3831;SDS011;12460;42.662;23.288;2023-05-19T08:12:36;9.70;;;8.80;;
3831;SDS011;12460;42.662;23.288;2023-05-19T08:27:40;10.73;;;9.50;;
3831;SDS011;12460;42.662;23.288;2023-05-19T08:42:46;10.63;;;9.53;;
3831;SDS011;12460;42.662;23.288;2023-05-19T08:57:50;10.97;;;9.80;;
3831;SDS011;12460;42.662;23.288;2023-05-19T09:12:55;11.47;;;10.33;;
3831;SDS011;12460;42.662;23.288;2023-05-19T09:27:59;14.00;;;12.60;;
3831;SDS011;12460;42.662;23.288;2023-05-19T09:43:04;14.00;;;12.60;;
3831;SDS011;12460;42.662;23.288;2023-05-19T09:58:14;12.03;;;10.80;;
3831;SDS011;12460;42.662;23.288;2023-05-19T10:13:20;15.43;;;11.63;;
3831;SDS011;12460;42.662;23.288;2023-05-19T10:28:30;13.43;;;11.93;;
3831;SDS011;12460;42.662;23.288;2023-05-19T10:58:57;12.80;;;11.37;;
3831;SDS011;12460;42.662;23.288;2023-05-19T11:14:05;12.87;;;11.67;;
3831;SDS011;12460;42.662;23.288;2023-05-19T11:29:11;12.43;;;11.20;;
3831;SDS011;12460;42.662;23.288;2023-05-19T11:44:17;11.47;;;10.37;;
3831;SDS011;12460;42.662;23.288;2023-05-19T11:59:30;13.50;;;11.00;;
3831;SDS011;12460;42.662;23.288;2023-05-19T12:14:38;11.80;;;10.13;;
3831;SDS011;12460;42.662;23.288;2023-05-19T12:29:47;10.87;;;9.40;;
3831;SDS011;12460;42.662;23.288;2023-05-19T12:44:54;10.70;;;8.37;;
3831;SDS011;12460;42.662;23.288;2023-05-19T13:00:06;9.00;;;7.77;;
3831;SDS011;12460;42.662;23.288;2023-05-19T13:15:24;9.03;;;7.30;;
3831;SDS011;12460;42.662;23.288;2023-05-19T13:30:33;9.00;;;7.67;;
3831;SDS011;12460;42.662;23.288;2023-05-19T13:45:40;9.90;;;8.50;;
3831;SDS011;12460;42.662;23.288;2023-05-19T14:00:46;10.67;;;9.47;;
3831;SDS011;12460;42.662;23.288;2023-05-19T14:15:54;10.00;;;9.00;;
3831;SDS011;12460;42.662;23.288;2023-05-19T14:30:58;10.80;;;9.30;;
3831;SDS011;12460;42.662;23.288;2023-05-19T14:46:04;10.67;;;9.33;;
3831;SDS011;12460;42.662;23.288;2023-05-19T15:01:09;10.97;;;9.30;;
3831;SDS011;12460;42.662;23.288;2023-05-19T15:16:13;11.40;;;9.30;;
3831;SDS011;12460;42.662;23.288;2023-05-19T15:31:20;11.20;;;9.73;;
3831;SDS011;12460;42.662;23.288;2023-05-19T15:46:24;13.50;;;9.40;;
3831;SDS011;12460;42.662;23.288;2023-05-19T16:01:29;10.10;;;9.07;;
3831;SDS011;12460;42.662;23.288;2023-05-19T16:16:33;12.83;;;11.43;;
3831;SDS011;12460;42.662;23.288;2023-05-19T16:31:38;11.20;;;9.83;;
3831;SDS011;12460;42.662;23.288;2023-05-19T16:46:43;13.00;;;9.80;;
3831;SDS011;12460;42.662;23.288;2023-05-19T17:01:47;11.20;;;9.63;;
3831;SDS011;12460;42.662;23.288;2023-05-19T17:16:53;12.70;;;10.90;;
3831;SDS011;12460;42.662;23.288;2023-05-19T17:31:57;13.73;;;11.10;;
3831;SDS011;12460;42.662;23.288;2023-05-19T17:47:02;11.93;;;10.23;;
3831;SDS011;12460;42.662;23.288;2023-05-19T18:02:08;14.97;;;10.80;;
3831;SDS011;12460;42.662;23.288;2023-05-19T18:17:13;17.10;;;12.60;;
3831;SDS011;12460;42.662;23.288;2023-05-19T18:32:17;18.93;;;15.03;;
3831;SDS011;12460;42.662;23.288;2023-05-19T18:47:22;16.80;;;13.93;;
3831;SDS011;12460;42.662;23.288;2023-05-19T19:02:27;19.10;;;14.80;;
3831;SDS011;12460;42.662;23.288;2023-05-19T19:17:31;15.30;;;12.13;;
3831;SDS011;12460;42.662;23.288;2023-05-19T19:32:35;15.90;;;11.80;;
3831;SDS011;12460;42.662;23.288;2023-05-19T19:47:40;12.60;;;11.30;;
3831;SDS011;12460;42.662;23.288;2023-05-19T20:02:45;12.37;;;10.57;;
3831;SDS011;12460;42.662;23.288;2023-05-19T20:18:06;14.33;;;11.70;;
3831;SDS011;12460;42.662;23.288;2023-05-19T20:33:11;13.00;;;11.53;;
3831;SDS011;12460;42.662;23.288;2023-05-19T20:48:15;12.10;;;10.80;;
3831;SDS011;12460;42.662;23.288;2023-05-19T21:03:20;10.40;;;9.30;;
3831;SDS011;12460;42.662;23.288;2023-05-19T21:18:25;13.70;;;9.90;;
3831;SDS011;12460;42.662;23.288;2023-05-19T21:33:31;13.43;;;10.47;;
3831;SDS011;12460;42.662;23.288;2023-05-19T21:48:35;14.97;;;11.30;;
3831;SDS011;12460;42.662;23.288;2023-05-19T22:03:40;17.53;;;12.80;;
3831;SDS011;12460;42.662;23.288;2023-05-19T22:18:46;16.57;;;11.30;;
3831;SDS011;12460;42.662;23.288;2023-05-19T22:33:50;13.27;;;10.80;;
3831;SDS011;12460;42.662;23.288;2023-05-19T22:48:55;12.70;;;10.90;;
3831;SDS011;12460;42.662;23.288;2023-05-19T23:04:00;13.57;;;11.03;;
3831;SDS011;12460;42.662;23.288;2023-05-19T23:19:05;13.60;;;10.70;;
3831;SDS011;12460;42.662;23.288;2023-05-19T23:34:09;13.97;;;10.97;;
3831;SDS011;12460;42.662;23.288;2023-05-19T23:49:13;15.67;;;10.90;;
